Alev Kaman — TCCN5 — position and weather

sailwx.info

Track history (hours):
 
Tides and Currents Weather Stations Pressure Air Temp Water Temp Dewpoint Dewpoint Depression Visibility Wind Speed Wind Dir Waves Ship Positions

Alev Kaman

Last reported at 2015-Sep-02 04:32 UTC. Time now 2015-Sep-04 18:55 UTC.
Position N 40°51' E 029°17'.

Length 93 m.

MMSI: 271000716.

Date/timePositionNaut miles runAvg speedWind from/ knotsBaromVisibWave heightAir tempDewpointWater temp
2015-Sep-02 04:32N 40°51' E 029°17'0 0.0
2015-Sep-01 21:33N 40°51' E 029°17'0 0.0
2015-Sep-01 20:12N 40°51' E 029°17'0 0.0
2015-Sep-01 18:31N 40°51' E 029°17'0 0.0
2015-Sep-01 17:31N 40°51' E 029°17'0 0.0
2015-Sep-01 16:31N 40°51' E 029°17'0 0.0
2015-Sep-01 15:28N 40°51' E 029°17'0 0.0
2015-Sep-01 14:24N 40°51' E 029°17'0 0.0
2015-Sep-01 13:32N 40°51' E 029°17'0 0.0
2015-Sep-01 12:28N 40°51' E 029°17'0 0.0
2015-Sep-01 11:25N 40°51' E 029°17'0 0.0
2015-Sep-01 10:21N 40°51' E 029°17'0 0.0
2015-Sep-01 09:32N 40°51' E 029°17'0 0.0
2015-Sep-01 08:32N 40°51' E 029°17'0 0.0
2015-Aug-31 19:19N 40°51' E 029°17'0 0.0
2015-Aug-31 18:33N 40°51' E 029°17'0 0.0
2015-Aug-31 17:33N 40°51' E 029°17'0 0.0
2015-Aug-31 16:33N 40°51' E 029°17'0 0.0
2015-Aug-31 15:33N 40°51' E 029°17'0 0.0
2015-Aug-31 14:33N 40°51' E 029°17'0 0.0
2015-Aug-31 13:33N 40°51' E 029°17'0 0.0
2015-Aug-31 12:33N 40°51' E 029°17'0 0.0
2015-Aug-31 11:33N 40°51' E 029°17'0 0.0
2015-Aug-31 10:33N 40°51' E 029°17'0 0.0
2015-Aug-31 09:33N 40°51' E 029°17'0 0.0
2015-Aug-31 08:30N 40°51' E 029°17'0 0.0
2015-Aug-31 07:23N 40°51' E 029°17'0 0.0
2015-Aug-29 04:09N 40°51' E 029°17'0 0.0
2015-Aug-29 03:33N 40°51' E 029°17'0 0.0
2015-Aug-29 02:33N 40°51' E 029°17'0 0.0
2015-Aug-29 01:32N 40°51' E 029°17'0 0.0
2015-Aug-29 00:33N 40°51' E 029°17'0 0.0
2015-Aug-28 23:32N 40°51' E 029°17'0 0.0
2015-Aug-28 22:33N 40°51' E 029°17'0 0.0
2015-Aug-28 21:33N 40°51' E 029°17'0 0.0
2015-Aug-28 20:26N 40°51' E 029°17'0 0.0
2015-Aug-28 19:33N 40°51' E 029°17'0 0.0
2015-Aug-28 18:33N 40°51' E 029°17'0 0.0
2015-Aug-28 17:31N 40°51' E 029°17'0 0.0
2015-Aug-28 16:16N 40°51' E 029°17'1 1.4
2015-Aug-28 15:32N 40°51' E 029°16'2 1.1
2015-Aug-28 13:16N 40°50' E 029°13'0 0.0
2015-Aug-28 12:28N 40°50' E 029°13'0 0.0
2015-Aug-28 11:03N 40°50' E 029°13'0 0.6
2015-Aug-28 10:33N 40°50' E 029°13'6 6.2
2015-Aug-28 09:33N 40°46' E 029°19'  
2015-Aug-25 22:09N 40°45' E 029°32'5 7.7
2015-Aug-25 21:33N 40°45' E 029°26'8 8.0
2015-Aug-25 20:33N 40°44' E 029°16'10 9.6
2015-Aug-25 19:33N 40°43' E 029°03'10 9.1
2015-Aug-25 18:29N 40°43' E 028°50'4 0.1
2015-Aug-24 11:30N 40°44' E 028°46'10 9.5
2015-Aug-24 10:29N 40°43' E 028°58'9 9.3
2015-Aug-24 09:33N 40°44' E 029°10'9 9.1
2015-Aug-24 08:33N 40°45' E 029°22'  
Track history (hours):
 
Tides and Currents Weather Stations Pressure Air Temp Water Temp Dewpoint Dewpoint Depression Visibility Wind Speed Wind Dir Waves Ship Positions

Alev Kaman

Last reported at 2015-Sep-02 04:32 UTC. Time now 2015-Sep-04 18:55 UTC.
Position N 40°51' E 029°17'.

Length 93 m.

MMSI: 271000716.

Date/timePositionNaut miles runAvg speedWind from/ knotsBaromVisibWave heightAir tempDewpointWater temp
2015-Sep-02 04:32N 40°51' E 029°17'0 0.0
2015-Sep-01 21:33N 40°51' E 029°17'0 0.0
2015-Sep-01 20:12N 40°51' E 029°17'0 0.0
2015-Sep-01 18:31N 40°51' E 029°17'0 0.0
2015-Sep-01 17:31N 40°51' E 029°17'0 0.0
2015-Sep-01 16:31N 40°51' E 029°17'0 0.0
2015-Sep-01 15:28N 40°51' E 029°17'0 0.0
2015-Sep-01 14:24N 40°51' E 029°17'0 0.0
2015-Sep-01 13:32N 40°51' E 029°17'0 0.0
2015-Sep-01 12:28N 40°51' E 029°17'0 0.0
2015-Sep-01 11:25N 40°51' E 029°17'0 0.0
2015-Sep-01 10:21N 40°51' E 029°17'0 0.0
2015-Sep-01 09:32N 40°51' E 029°17'0 0.0
2015-Sep-01 08:32N 40°51' E 029°17'0 0.0
2015-Aug-31 19:19N 40°51' E 029°17'0 0.0
2015-Aug-31 18:33N 40°51' E 029°17'0 0.0
2015-Aug-31 17:33N 40°51' E 029°17'0 0.0
2015-Aug-31 16:33N 40°51' E 029°17'0 0.0
2015-Aug-31 15:33N 40°51' E 029°17'0 0.0
2015-Aug-31 14:33N 40°51' E 029°17'0 0.0
2015-Aug-31 13:33N 40°51' E 029°17'0 0.0
2015-Aug-31 12:33N 40°51' E 029°17'0 0.0
2015-Aug-31 11:33N 40°51' E 029°17'0 0.0
2015-Aug-31 10:33N 40°51' E 029°17'0 0.0
2015-Aug-31 09:33N 40°51' E 029°17'0 0.0
2015-Aug-31 08:30N 40°51' E 029°17'0 0.0
2015-Aug-31 07:23N 40°51' E 029°17'0 0.0
2015-Aug-29 04:09N 40°51' E 029°17'0 0.0
2015-Aug-29 03:33N 40°51' E 029°17'0 0.0
2015-Aug-29 02:33N 40°51' E 029°17'0 0.0
2015-Aug-29 01:32N 40°51' E 029°17'0 0.0
2015-Aug-29 00:33N 40°51' E 029°17'0 0.0
2015-Aug-28 23:32N 40°51' E 029°17'0 0.0
2015-Aug-28 22:33N 40°51' E 029°17'0 0.0
2015-Aug-28 21:33N 40°51' E 029°17'0 0.0
2015-Aug-28 20:26N 40°51' E 029°17'0 0.0
2015-Aug-28 19:33N 40°51' E 029°17'0 0.0
2015-Aug-28 18:33N 40°51' E 029°17'0 0.0
2015-Aug-28 17:31N 40°51' E 029°17'0 0.0
2015-Aug-28 16:16N 40°51' E 029°17'1 1.4
2015-Aug-28 15:32N 40°51' E 029°16'2 1.1
2015-Aug-28 13:16N 40°50' E 029°13'0 0.0
2015-Aug-28 12:28N 40°50' E 029°13'0 0.0
2015-Aug-28 11:03N 40°50' E 029°13'0 0.6
2015-Aug-28 10:33N 40°50' E 029°13'6 6.2
2015-Aug-28 09:33N 40°46' E 029°19'  
2015-Aug-25 22:09N 40°45' E 029°32'5 7.7
2015-Aug-25 21:33N 40°45' E 029°26'8 8.0
2015-Aug-25 20:33N 40°44' E 029°16'10 9.6
2015-Aug-25 19:33N 40°43' E 029°03'10 9.1
2015-Aug-25 18:29N 40°43' E 028°50'4 0.1
2015-Aug-24 11:30N 40°44' E 028°46'10 9.5
2015-Aug-24 10:29N 40°43' E 028°58'9 9.3
2015-Aug-24 09:33N 40°44' E 029°10'9 9.1
2015-Aug-24 08:33N 40°45' E 029°22'  

Dump ship's entire track history